createdAt,value
2018-08-23T00:00:39.265Z,40.17
2018-08-23T00:04:07.127Z,41.08
2018-08-23T00:07:31.571Z,42.33
2018-08-23T00:10:55.980Z,41.05
2018-08-23T00:14:20.449Z,42.03
2018-08-23T00:17:47.649Z,41.30
2018-08-23T00:21:17.163Z,43.13
2018-08-23T00:24:41.641Z,40.73
2018-08-23T00:28:06.598Z,40.65
2018-08-23T00:31:34.171Z,44.95
2018-08-23T00:34:58.825Z,40.43
2018-08-23T00:38:23.238Z,43.52
2018-08-23T00:41:52.792Z,41.48
2018-08-23T00:45:19.032Z,44.20
2018-08-23T00:48:43.965Z,45.12
2018-08-23T00:52:08.430Z,43.98
2018-08-23T00:55:32.867Z,40.70
2018-08-23T00:59:00.665Z,44.73
2018-08-23T01:02:25.050Z,45.58
2018-08-23T01:05:49.462Z,46.23
2018-08-23T01:09:14.546Z,48.68
2018-08-23T01:12:49.445Z,45.75
2018-08-23T01:16:14.906Z,43.28
2018-08-23T01:19:44.580Z,48.23
2018-08-23T01:23:09.132Z,44.55
2018-08-23T01:26:35.638Z,46.68
2018-08-23T01:30:00.111Z,46.73
2018-08-23T01:33:24.548Z,45.60
2018-08-23T01:36:48.994Z,47.25
2018-08-23T01:40:13.429Z,46.13
2018-08-23T01:43:37.883Z,45.88
2018-08-23T01:47:03.466Z,49.90
2018-08-23T01:50:28.175Z,48.48
2018-08-23T01:53:52.642Z,49.93
2018-08-23T01:57:22.404Z,48.00
2018-08-23T02:00:49.055Z,49.85
2018-08-23T02:04:13.566Z,49.85
2018-08-23T02:07:37.970Z,46.20
2018-08-23T02:11:02.478Z,50.92
2018-08-23T02:14:28.370Z,43.28
2018-08-23T02:17:58.881Z,46.73
2018-08-23T02:21:23.352Z,48.95
2018-08-23T02:24:49.501Z,44.67
2018-08-23T02:28:13.916Z,44.77
2018-08-23T02:31:38.494Z,47.75
2018-08-23T02:35:06.006Z,45.40
2018-08-23T02:38:30.693Z,45.52
2018-08-23T02:41:55.132Z,46.18
2018-08-23T02:45:19.578Z,46.50
2018-08-23T02:48:44.054Z,45.28
2018-08-23T02:52:08.503Z,48.30
2018-08-23T02:55:39.328Z,46.85
2018-08-23T02:59:06.653Z,52.65
2018-08-23T03:02:31.125Z,49.58
2018-08-23T03:05:55.603Z,48.05
2018-08-23T03:09:23.892Z,49.20
2018-08-23T03:12:48.394Z,47.45
2018-08-23T03:16:13.302Z,46.25
2018-08-23T03:19:37.775Z,47.27
2018-08-23T03:23:02.205Z,49.83
2018-08-23T03:26:26.609Z,49.27
2018-08-23T03:29:51.278Z,47.83
2018-08-23T03:33:15.719Z,50.58
2018-08-23T03:36:40.153Z,49.75
2018-08-23T03:40:04.875Z,52.45
2018-08-23T03:43:29.324Z,52.30
2018-08-23T03:46:55.120Z,54.38
2018-08-23T03:50:19.540Z,54.30
2018-08-23T03:53:49.450Z,52.80
2018-08-23T03:57:16.606Z,55.17
2018-08-23T04:01:00.419Z,49.18
2018-08-23T04:04:24.812Z,51.90
2018-08-23T04:07:49.239Z,49.08
2018-08-23T04:11:13.721Z,51.23
2018-08-23T04:14:38.505Z,53.58
2018-08-23T04:18:18.300Z,50.67
2018-08-23T04:21:42.719Z,50.10
2018-08-23T04:25:14.049Z,51.95
2018-08-23T04:28:38.605Z,52.30
2018-08-23T04:32:04.451Z,52.10
2018-08-23T04:35:29.849Z,54.00
2018-08-23T04:38:58.366Z,51.98
2018-08-23T04:42:22.809Z,50.70
2018-08-23T04:45:47.293Z,50.15
2018-08-23T04:49:11.810Z,53.17
2018-08-23T04:52:36.228Z,50.12
2018-08-23T04:56:00.635Z,55.28
2018-08-23T04:59:25.096Z,53.45
2018-08-23T05:02:49.731Z,52.85
2018-08-23T05:06:14.241Z,52.25
2018-08-23T05:09:38.668Z,49.98
2018-08-23T05:13:03.126Z,54.15
2018-08-23T05:16:27.600Z,55.52
2018-08-23T05:19:52.110Z,54.38
2018-08-23T05:23:16.595Z,54.40
2018-08-23T05:26:41.407Z,57.93
2018-08-23T05:30:06.062Z,52.30
2018-08-23T05:33:30.492Z,55.58
2018-08-23T05:36:54.912Z,55.90
2018-08-23T05:40:19.337Z,56.75
2018-08-23T05:43:43.844Z,53.30
2018-08-23T05:47:08.308Z,52.78
2018-08-23T05:50:36.021Z,59.77
2018-08-23T05:54:00.448Z,55.98
2018-08-23T05:57:24.852Z,58.38
2018-08-23T06:00:49.264Z,61.88
2018-08-23T06:04:14.404Z,60.52
2018-08-23T06:07:38.873Z,59.03
2018-08-23T06:11:09.079Z,59.55
2018-08-23T06:14:33.480Z,57.55
2018-08-23T06:17:57.915Z,60.17
2018-08-23T06:21:22.414Z,55.95
2018-08-23T06:24:46.821Z,56.15
2018-08-23T06:28:24.203Z,54.38
2018-08-23T06:32:00.487Z,57.03
2018-08-23T06:35:26.485Z,60.40
2018-08-23T06:38:56.205Z,57.67
2018-08-23T06:42:21.043Z,64.90
2018-08-23T06:45:45.469Z,64.55
2018-08-23T06:49:09.897Z,60.43
2018-08-23T06:52:39.487Z,59.27
2018-08-23T06:56:03.917Z,56.35
2018-08-23T06:59:28.436Z,55.65
2018-08-23T07:02:52.872Z,56.77
2018-08-23T07:06:17.339Z,54.35
2018-08-23T07:09:41.762Z,53.63
2018-08-23T07:13:07.268Z,53.45
2018-08-23T07:16:32.507Z,51.00
2018-08-23T07:20:00.321Z,50.35
2018-08-23T07:23:34.609Z,47.45
2018-08-23T07:26:59.013Z,52.60
2018-08-23T07:30:23.452Z,52.55
2018-08-23T07:33:52.643Z,52.33
2018-08-23T07:37:18.394Z,56.00
2018-08-23T07:40:42.802Z,50.92
2018-08-23T07:44:07.279Z,54.98
2018-08-23T07:47:32.528Z,57.33
2018-08-23T07:50:57.011Z,58.08
2018-08-23T07:54:23.220Z,54.88
2018-08-23T07:57:47.812Z,54.23
2018-08-23T08:01:14.224Z,51.00
2018-08-23T08:04:38.639Z,53.92
2018-08-23T08:08:03.253Z,52.93
2018-08-23T08:11:30.096Z,51.48
2018-08-23T08:14:54.612Z,48.73
2018-08-23T08:18:22.786Z,46.05
2018-08-23T08:21:47.282Z,47.78
2018-08-23T08:25:19.129Z,44.95
2018-08-23T08:28:43.531Z,48.25
2018-08-23T08:32:10.050Z,44.95
2018-08-23T08:35:34.500Z,44.18
2018-08-23T08:38:59.371Z,36.15
2018-08-23T08:42:34.002Z,35.63
2018-08-23T08:45:59.509Z,38.00
2018-08-23T08:49:23.995Z,36.40
2018-08-23T08:52:48.396Z,38.05
2018-08-23T08:56:12.884Z,35.92
2018-08-23T08:59:37.329Z,31.80
2018-08-23T09:03:01.753Z,30.43
2018-08-23T09:06:46.669Z,28.20
2018-08-23T09:10:10.778Z,28.32
2018-08-23T09:13:40.339Z,23.80
2018-08-23T09:17:26.888Z,24.65
2018-08-23T09:20:54.895Z,22.85
2018-08-23T09:24:28.745Z,25.40
2018-08-23T09:27:53.165Z,25.02
2018-08-23T09:31:17.679Z,24.37
2018-08-23T09:34:42.645Z,23.60
2018-08-23T09:38:14.895Z,20.12
2018-08-23T09:41:39.451Z,17.48
2018-08-23T09:45:17.067Z,17.85
2018-08-23T09:48:41.485Z,18.75
2018-08-23T09:52:11.571Z,18.42
2018-08-23T09:55:35.968Z,18.87
2018-08-23T09:59:00.513Z,18.55
2018-08-23T10:02:30.144Z,16.67
2018-08-23T10:05:59.745Z,12.95
2018-08-23T10:09:24.533Z,13.68
2018-08-23T10:12:54.274Z,17.48
2018-08-23T10:16:24.032Z,15.90
2018-08-23T10:19:53.605Z,19.30
2018-08-23T10:23:26.095Z,15.93
2018-08-23T10:26:50.478Z,17.20
2018-08-23T10:30:14.973Z,14.60
2018-08-23T10:33:39.396Z,16.10
2018-08-23T10:37:03.760Z,15.83
2018-08-23T10:40:28.200Z,13.88
2018-08-23T10:43:52.609Z,13.93
2018-08-23T10:47:22.163Z,14.25
2018-08-23T10:50:48.196Z,15.15
2018-08-23T10:54:12.597Z,24.00
2018-08-23T10:57:37.034Z,22.87
2018-08-23T11:01:01.532Z,23.83
2018-08-23T11:04:25.946Z,21.55
2018-08-23T11:08:57.086Z,21.27
2018-08-23T11:12:26.653Z,17.23
2018-08-23T11:15:55.130Z,22.77
2018-08-23T11:19:24.751Z,23.18
2018-08-23T11:22:49.221Z,23.50
2018-08-23T11:26:22.182Z,23.55
2018-08-23T11:29:46.660Z,26.87
2018-08-23T11:33:11.103Z,30.55
2018-08-23T11:36:35.521Z,25.68
2018-08-23T11:39:59.989Z,33.10
2018-08-23T11:43:24.423Z,27.73
2018-08-23T11:46:48.966Z,31.02
2018-08-23T11:50:13.391Z,28.95
2018-08-23T11:53:38.056Z,30.95
2018-08-23T11:57:02.245Z,28.45
2018-08-23T12:00:26.733Z,29.40
2018-08-23T12:03:51.191Z,35.28
2018-08-23T12:07:15.624Z,34.43
2018-08-23T12:10:40.055Z,30.32
2018-08-23T12:14:04.664Z,28.25
2018-08-23T12:17:29.078Z,28.15
2018-08-23T12:20:53.496Z,25.23
2018-08-23T12:24:17.969Z,25.35
2018-08-23T12:27:42.778Z,28.45
2018-08-23T12:31:07.453Z,25.77
2018-08-23T12:34:36.187Z,26.87
2018-08-23T12:38:05.877Z,23.25
2018-08-23T12:42:35.171Z,21.82
2018-08-23T12:46:04.417Z,23.47
2018-08-23T12:49:28.893Z,19.92
2018-08-23T12:52:53.411Z,21.02
2018-08-23T12:56:17.923Z,19.05
2018-08-23T12:59:42.419Z,18.95
2018-08-23T13:03:07.731Z,19.45
2018-08-23T13:06:32.132Z,20.45
2018-08-23T13:09:56.553Z,18.27
2018-08-23T13:13:20.997Z,18.95
2018-08-23T13:16:45.531Z,20.30
2018-08-23T13:20:09.957Z,18.15
2018-08-23T13:23:34.416Z,17.20
2018-08-23T13:26:58.869Z,18.75
2018-08-23T13:30:23.329Z,17.23
2018-08-23T13:33:47.773Z,15.98
2018-08-23T13:37:12.200Z,16.05
2018-08-23T13:40:36.632Z,16.05
2018-08-23T13:44:01.155Z,13.83
2018-08-23T13:47:25.532Z,14.90
2018-08-23T13:50:49.954Z,14.63
2018-08-23T13:54:14.384Z,15.18
2018-08-23T13:57:38.857Z,14.45
2018-08-23T14:01:03.302Z,15.48
2018-08-23T14:04:27.723Z,15.65
2018-08-23T14:07:52.156Z,12.65
2018-08-23T14:11:16.690Z,17.48
2018-08-23T14:14:41.814Z,12.98
2018-08-23T14:18:06.287Z,14.47
2018-08-23T14:21:30.751Z,18.62
2018-08-23T14:24:55.247Z,12.93
2018-08-23T14:28:19.825Z,16.55
2018-08-23T14:31:44.235Z,12.50
2018-08-23T14:35:08.739Z,16.87
2018-08-23T14:38:33.270Z,15.10
2018-08-23T14:41:57.665Z,17.40
2018-08-23T14:45:27.251Z,15.60
2018-08-23T14:48:51.697Z,14.80
2018-08-23T14:52:16.178Z,15.60
2018-08-23T14:55:45.770Z,16.27
2018-08-23T14:59:10.275Z,14.58
2018-08-23T15:02:34.788Z,12.47
2018-08-23T15:05:59.211Z,11.90
2018-08-23T15:09:28.010Z,10.45
2018-08-23T15:12:52.568Z,10.75
2018-08-23T15:16:17.056Z,12.20
2018-08-23T15:19:41.685Z,10.70
2018-08-23T15:23:06.489Z,8.70
2018-08-23T15:26:31.056Z,7.97
2018-08-23T15:29:55.306Z,6.70
2018-08-23T15:33:19.719Z,6.83
2018-08-23T15:36:44.185Z,7.90
2018-08-23T15:40:08.687Z,8.48
2018-08-23T15:43:33.111Z,8.45
2018-08-23T15:46:57.518Z,8.30
2018-08-23T15:50:23.545Z,10.08
2018-08-23T15:53:47.915Z,8.15
2018-08-23T15:57:12.373Z,9.70
2018-08-23T16:00:39.808Z,10.13
2018-08-23T16:04:04.390Z,11.45
2018-08-23T16:07:28.790Z,10.20
2018-08-23T16:10:53.228Z,11.60
2018-08-23T16:14:17.709Z,12.33
2018-08-23T16:17:47.300Z,10.08
2018-08-23T16:21:11.711Z,10.28
2018-08-23T16:24:36.117Z,11.00
2018-08-23T16:28:06.136Z,11.75
2018-08-23T16:31:30.769Z,9.73
2018-08-23T16:34:55.270Z,13.05
2018-08-23T16:38:19.682Z,9.60
2018-08-23T16:41:44.153Z,9.78
2018-08-23T16:45:08.665Z,10.03
2018-08-23T16:48:33.097Z,11.33
2018-08-23T16:51:57.502Z,10.45
2018-08-23T16:55:21.923Z,9.90
2018-08-23T16:58:46.345Z,12.15
2018-08-23T17:02:10.958Z,7.78
2018-08-23T17:05:35.410Z,8.45
2018-08-23T17:09:00.149Z,7.62
2018-08-23T17:12:24.525Z,9.10
2018-08-23T17:15:54.117Z,8.55
2018-08-23T17:19:18.609Z,8.58
2018-08-23T17:22:44.581Z,7.65
2018-08-23T17:26:09.033Z,8.25
2018-08-23T17:29:33.467Z,8.40
2018-08-23T17:32:57.900Z,7.37
2018-08-23T17:36:22.336Z,7.28
2018-08-23T17:39:46.774Z,8.08
2018-08-23T17:43:11.213Z,7.33
2018-08-23T17:46:35.672Z,7.30
2018-08-23T17:50:00.111Z,6.95
2018-08-23T17:53:24.553Z,5.90
2018-08-23T17:56:49.009Z,6.05
2018-08-23T18:00:13.482Z,5.47
2018-08-23T18:03:37.913Z,5.85
2018-08-23T18:07:02.369Z,5.58
2018-08-23T18:10:28.022Z,5.10
2018-08-23T18:13:52.449Z,5.78
2018-08-23T18:17:16.895Z,5.65
2018-08-23T18:20:41.296Z,5.45
2018-08-23T18:24:05.883Z,5.47
2018-08-23T18:27:30.278Z,5.80
2018-08-23T18:30:54.716Z,5.47
2018-08-23T18:34:19.178Z,5.47
2018-08-23T18:37:43.785Z,4.95
2018-08-23T18:41:08.079Z,5.40
2018-08-23T18:44:32.500Z,4.72
2018-08-23T18:47:56.943Z,4.58
2018-08-23T18:51:21.356Z,5.45
2018-08-23T18:54:45.771Z,5.15
2018-08-23T18:58:10.232Z,5.20
2018-08-23T19:01:34.679Z,4.72
2018-08-23T19:04:59.117Z,5.45
2018-08-23T19:08:23.559Z,4.97
2018-08-23T19:11:48.019Z,4.83
2018-08-23T19:15:12.554Z,4.72
2018-08-23T19:18:37.379Z,4.42
2018-08-23T19:22:02.523Z,4.78
2018-08-23T19:25:27.619Z,4.42
2018-08-23T19:28:52.798Z,3.87
2018-08-23T19:32:18.113Z,4.95
2018-08-23T19:35:42.545Z,4.10
2018-08-23T19:39:11.503Z,5.03
2018-08-23T19:42:36.078Z,4.78
2018-08-23T19:46:05.715Z,3.87
2018-08-23T19:49:35.413Z,3.83
2018-08-23T19:52:59.935Z,4.15
2018-08-23T19:56:24.428Z,4.35
2018-08-23T19:59:48.937Z,3.58
2018-08-23T20:03:13.391Z,4.08
2018-08-23T20:06:37.962Z,3.52
2018-08-23T20:10:02.392Z,3.52
2018-08-23T20:13:26.986Z,3.45
2018-08-23T20:16:51.417Z,3.80
2018-08-23T20:20:17.017Z,3.20
2018-08-23T20:23:41.480Z,3.50
2018-08-23T20:27:05.953Z,3.95
2018-08-23T20:30:30.404Z,3.62
2018-08-23T20:33:54.832Z,3.47
2018-08-23T20:37:19.301Z,3.85
2018-08-23T20:40:43.716Z,2.87
2018-08-23T20:44:08.665Z,3.70
2018-08-23T20:47:33.108Z,3.25
2018-08-23T20:50:57.580Z,2.92
2018-08-23T20:54:22.020Z,3.00
2018-08-23T20:57:46.517Z,3.25
2018-08-23T21:01:10.963Z,3.27
2018-08-23T21:04:39.279Z,2.85
2018-08-23T21:08:03.821Z,3.08
2018-08-23T21:11:28.224Z,3.37
2018-08-23T21:14:52.645Z,2.83
2018-08-23T21:18:17.053Z,2.90
2018-08-23T21:21:41.452Z,3.33
2018-08-23T21:25:05.937Z,3.62
2018-08-23T21:28:30.358Z,3.83
2018-08-23T21:31:54.784Z,3.27
2018-08-23T21:35:19.224Z,3.37
2018-08-23T21:38:43.657Z,3.27
2018-08-23T21:42:08.113Z,3.12
2018-08-23T21:45:32.528Z,3.35
2018-08-23T21:48:56.995Z,3.00
2018-08-23T21:52:21.411Z,3.20
2018-08-23T21:55:45.831Z,3.00
2018-08-23T21:59:10.393Z,3.22
2018-08-23T22:02:34.874Z,3.17
2018-08-23T22:05:59.284Z,3.15
2018-08-23T22:09:23.730Z,3.00
2018-08-23T22:12:48.180Z,2.50
2018-08-23T22:16:12.632Z,2.98
2018-08-23T22:19:37.051Z,3.33
2018-08-23T22:23:01.469Z,2.42
2018-08-23T22:26:25.933Z,2.75
2018-08-23T22:29:50.314Z,2.70
2018-08-23T22:33:14.774Z,2.75
2018-08-23T22:36:39.164Z,2.72
2018-08-23T22:40:03.591Z,2.70
2018-08-23T22:43:28.015Z,2.60
2018-08-23T22:46:52.425Z,2.75
2018-08-23T22:50:16.854Z,2.87
2018-08-23T22:53:41.376Z,2.12
2018-08-23T22:57:05.856Z,1.87
2018-08-23T23:00:35.625Z,2.72
2018-08-23T23:04:05.309Z,2.42
2018-08-23T23:07:29.729Z,1.70
2018-08-23T23:10:54.076Z,2.27
2018-08-23T23:14:18.503Z,2.10
2018-08-23T23:17:42.953Z,2.65
2018-08-23T23:21:07.348Z,1.98
2018-08-23T23:24:36.756Z,1.85
2018-08-23T23:28:01.175Z,2.50
2018-08-23T23:31:25.597Z,3.47
2018-08-23T23:34:49.987Z,4.45
2018-08-23T23:38:14.367Z,5.53
2018-08-23T23:41:38.799Z,6.75
2018-08-23T23:45:03.215Z,7.25
2018-08-23T23:48:27.662Z,9.50
2018-08-23T23:51:52.090Z,9.35
2018-08-23T23:55:16.549Z,8.60
2018-08-23T23:58:40.994Z,9.75
